createdAt,value
2022-12-17T00:02:21.154Z,47.20
2022-12-17T00:05:06.455Z,44.73
2022-12-17T00:07:52.223Z,48.77
2022-12-17T00:10:37.855Z,47.03
2022-12-17T00:13:23.164Z,48.83
2022-12-17T00:16:10.892Z,46.23
2022-12-17T00:18:57.999Z,48.63
2022-12-17T00:21:43.395Z,49.60
2022-12-17T00:24:28.669Z,48.57
2022-12-17T00:27:14.011Z,50.37
2022-12-17T00:29:59.401Z,48.03
2022-12-17T00:32:47.275Z,48.57
2022-12-17T00:35:34.248Z,49.03
2022-12-17T00:38:19.871Z,50.10
2022-12-17T00:41:09.657Z,48.90
2022-12-17T00:43:56.371Z,49.27
2022-12-17T00:46:42.019Z,47.03
2022-12-17T00:49:27.386Z,48.87
2022-12-17T00:52:14.311Z,46.67
2022-12-17T00:54:59.912Z,47.57
2022-12-17T00:57:45.158Z,49.03
2022-12-17T01:00:33.406Z,49.77
2022-12-17T01:03:26.902Z,50.57
2022-12-17T01:06:12.723Z,47.23
2022-12-17T01:08:59.689Z,47.07
2022-12-17T01:11:45.111Z,49.17
2022-12-17T01:14:30.813Z,46.07
2022-12-17T01:17:16.649Z,46.73
2022-12-17T01:20:02.175Z,48.20
2022-12-17T01:22:47.615Z,49.93
2022-12-17T01:25:34.575Z,48.63
2022-12-17T01:28:22.571Z,48.37
2022-12-17T01:31:08.044Z,48.57
2022-12-17T01:33:58.666Z,49.23
2022-12-17T01:36:44.171Z,49.20
2022-12-17T01:39:29.630Z,47.70
2022-12-17T01:42:16.690Z,48.10
2022-12-17T01:45:09.501Z,47.97
2022-12-17T01:48:00.035Z,48.30
2022-12-17T01:50:48.517Z,47.40
2022-12-17T01:53:35.200Z,47.70
2022-12-17T01:56:21.127Z,48.03
2022-12-17T01:59:08.285Z,48.13
2022-12-17T02:01:54.272Z,47.10
2022-12-17T02:04:40.120Z,48.33
2022-12-17T02:07:39.062Z,48.57
2022-12-17T02:10:36.723Z,48.13
2022-12-17T02:13:30.562Z,48.33
2022-12-17T02:16:23.221Z,46.60
2022-12-17T02:19:14.087Z,46.70
2022-12-17T02:22:01.407Z,46.00
2022-12-17T02:25:05.640Z,45.97
2022-12-17T02:27:54.006Z,44.23
2022-12-17T02:30:39.587Z,45.50
2022-12-17T02:33:25.460Z,47.20
2022-12-17T02:36:16.234Z,44.17
2022-12-17T02:39:01.886Z,44.73
2022-12-17T02:41:49.180Z,44.80
2022-12-17T02:44:38.342Z,43.60
2022-12-17T02:47:26.560Z,45.33
2022-12-17T02:50:12.609Z,43.77
2022-12-17T02:53:03.772Z,43.43
2022-12-17T02:55:49.072Z,45.80
2022-12-17T02:58:34.591Z,46.67
2022-12-17T03:01:21.353Z,43.07
2022-12-17T03:04:06.983Z,46.67
2022-12-17T03:06:52.226Z,45.63
2022-12-17T03:09:37.754Z,46.37
2022-12-17T03:12:23.495Z,46.73
2022-12-17T03:15:08.920Z,46.67
2022-12-17T03:17:59.323Z,46.00
2022-12-17T03:20:44.953Z,44.27
2022-12-17T03:23:30.614Z,48.87
2022-12-17T03:26:18.109Z,47.60
2022-12-17T03:29:03.712Z,47.47
2022-12-17T03:31:49.613Z,46.93
2022-12-17T03:34:36.431Z,47.87
2022-12-17T03:37:22.202Z,48.47
2022-12-17T03:40:08.373Z,46.77
2022-12-17T03:42:53.791Z,46.17
2022-12-17T03:45:39.135Z,45.90
2022-12-17T03:48:31.891Z,49.63
2022-12-17T03:51:19.006Z,46.97
2022-12-17T03:54:10.937Z,49.37
2022-12-17T03:56:56.467Z,49.70
2022-12-17T03:59:41.743Z,47.00
2022-12-17T04:02:27.570Z,47.60
2022-12-17T04:05:19.681Z,46.77
2022-12-17T04:08:07.303Z,47.87
2022-12-17T04:11:01.351Z,48.60
2022-12-17T04:13:47.139Z,48.63
2022-12-17T04:16:33.020Z,49.10
2022-12-17T04:19:26.976Z,48.13
2022-12-17T04:22:12.633Z,49.40
2022-12-17T04:24:59.326Z,49.63
2022-12-17T04:27:45.395Z,47.77
2022-12-17T04:30:31.064Z,47.77
2022-12-17T04:33:16.536Z,49.67
2022-12-17T04:36:02.157Z,46.67
2022-12-17T04:38:47.377Z,47.97
2022-12-17T04:41:34.546Z,50.83
2022-12-17T04:44:20.001Z,49.80
2022-12-17T04:47:07.425Z,49.07
2022-12-17T04:49:53.041Z,50.20
2022-12-17T04:52:38.463Z,49.83
2022-12-17T04:55:24.875Z,50.60
2022-12-17T04:58:11.516Z,50.67
2022-12-17T05:00:56.728Z,49.40
2022-12-17T05:03:42.137Z,51.00
2022-12-17T05:06:28.037Z,52.17
2022-12-17T05:09:13.616Z,49.30
2022-12-17T05:11:59.302Z,53.97
2022-12-17T05:14:45.993Z,48.67
2022-12-17T05:17:31.345Z,49.30
2022-12-17T05:20:16.729Z,48.83
2022-12-17T05:23:02.280Z,49.23
2022-12-17T05:25:47.797Z,49.83
2022-12-17T05:28:33.036Z,49.80
2022-12-17T05:31:20.141Z,51.33
2022-12-17T05:34:06.191Z,51.77
2022-12-17T05:36:51.631Z,52.90
2022-12-17T05:39:37.373Z,48.80
2022-12-17T05:42:22.485Z,51.73
2022-12-17T05:45:08.142Z,50.30
2022-12-17T05:47:55.342Z,49.67
2022-12-17T05:50:40.838Z,47.53
2022-12-17T05:53:26.696Z,51.13
2022-12-17T05:56:12.149Z,51.17
2022-12-17T05:58:57.913Z,49.83
2022-12-17T06:01:43.410Z,51.27
2022-12-17T06:04:30.452Z,50.33
2022-12-17T06:07:16.214Z,48.90
2022-12-17T06:10:01.742Z,51.80
2022-12-17T06:12:47.223Z,51.67
2022-12-17T06:15:32.715Z,51.70
2022-12-17T06:18:18.347Z,47.17
2022-12-17T06:21:13.901Z,52.27
2022-12-17T06:23:59.654Z,53.50
2022-12-17T06:26:45.225Z,49.07
2022-12-17T06:29:44.954Z,52.67
2022-12-17T06:32:30.304Z,48.43
2022-12-17T06:35:15.791Z,50.80
2022-12-17T06:38:02.453Z,52.97
2022-12-17T06:40:48.339Z,53.67
2022-12-17T06:43:34.273Z,49.60
2022-12-17T06:46:20.046Z,49.70
2022-12-17T06:49:05.684Z,48.87
2022-12-17T06:51:51.186Z,49.17
2022-12-17T06:54:37.943Z,55.27
2022-12-17T06:57:23.468Z,56.63
2022-12-17T07:00:09.166Z,50.07
2022-12-17T07:02:54.688Z,53.93
2022-12-17T07:05:40.111Z,47.90
2022-12-17T07:08:30.958Z,49.67
2022-12-17T07:11:19.962Z,48.80
2022-12-17T07:14:05.764Z,48.33
2022-12-17T07:16:51.286Z,49.77
2022-12-17T07:19:36.701Z,49.13
2022-12-17T07:22:22.484Z,50.50
2022-12-17T07:25:08.116Z,54.83
2022-12-17T07:27:55.518Z,52.60
2022-12-17T07:30:41.052Z,49.17
2022-12-17T07:33:28.490Z,50.47
2022-12-17T07:36:14.773Z,48.57
2022-12-17T07:38:59.986Z,47.47
2022-12-17T07:41:45.734Z,48.43
2022-12-17T07:44:32.557Z,49.60
2022-12-17T07:47:18.167Z,49.00
2022-12-17T07:50:03.502Z,49.33
2022-12-17T07:52:49.052Z,51.37
2022-12-17T07:55:34.576Z,51.70
2022-12-17T07:58:21.914Z,47.07
2022-12-17T08:01:05.541Z,47.73
2022-12-17T08:03:51.067Z,47.83
2022-12-17T08:06:36.141Z,47.37
2022-12-17T08:09:22.482Z,46.07
2022-12-17T08:12:07.878Z,48.67
2022-12-17T08:14:53.248Z,45.27
2022-12-17T08:17:40.433Z,47.33
2022-12-17T08:20:27.820Z,47.90
2022-12-17T08:23:19.955Z,46.90
2022-12-17T08:26:05.294Z,46.73
2022-12-17T08:28:51.168Z,43.87
2022-12-17T08:31:37.842Z,45.40
2022-12-17T08:34:24.870Z,48.83
2022-12-17T08:37:10.372Z,47.03
2022-12-17T08:39:55.946Z,44.23
2022-12-17T08:42:41.672Z,44.90
2022-12-17T08:45:36.951Z,44.60
2022-12-17T08:48:23.220Z,44.53
2022-12-17T08:51:10.290Z,44.80
2022-12-17T08:53:56.043Z,45.30
2022-12-17T08:56:41.396Z,43.07
2022-12-17T08:59:26.610Z,43.83
2022-12-17T09:02:15.511Z,42.50
2022-12-17T09:05:01.254Z,43.90
2022-12-17T09:07:48.554Z,45.57
2022-12-17T09:10:34.317Z,43.03
2022-12-17T09:13:21.024Z,43.63
2022-12-17T09:16:10.960Z,44.27
2022-12-17T09:18:56.837Z,42.53
2022-12-17T09:21:43.396Z,42.00
2022-12-17T09:24:30.692Z,44.03
2022-12-17T09:27:15.944Z,43.60
2022-12-17T09:30:01.595Z,44.37
2022-12-17T09:32:47.261Z,42.63
2022-12-17T09:35:44.702Z,43.27
2022-12-17T09:38:31.083Z,41.17
2022-12-17T09:41:29.513Z,44.27
2022-12-17T09:44:21.586Z,43.40
2022-12-17T09:47:13.502Z,42.73
2022-12-17T09:49:58.851Z,43.30
2022-12-17T09:52:47.131Z,44.17
2022-12-17T09:55:41.446Z,44.17
2022-12-17T09:58:37.323Z,44.37
2022-12-17T10:01:24.054Z,44.50
2022-12-17T10:04:10.146Z,43.17
2022-12-17T10:06:56.195Z,44.27
2022-12-17T10:09:45.507Z,43.87
2022-12-17T10:12:33.666Z,43.60
2022-12-17T10:15:29.844Z,42.10
2022-12-17T10:18:23.431Z,40.57
2022-12-17T10:21:15.491Z,42.07
2022-12-17T10:24:01.277Z,42.23
2022-12-17T10:26:48.642Z,40.40
2022-12-17T10:29:36.302Z,38.63
2022-12-17T10:32:38.129Z,38.40
2022-12-17T10:35:30.885Z,39.27
2022-12-17T10:38:20.086Z,38.43
2022-12-17T10:41:05.657Z,39.63
2022-12-17T10:43:53.325Z,38.27
2022-12-17T10:46:44.208Z,39.93
2022-12-17T10:49:33.751Z,39.20
2022-12-17T10:52:20.969Z,39.83
2022-12-17T10:55:20.447Z,39.63
2022-12-17T10:58:08.818Z,38.87
2022-12-17T11:00:58.137Z,39.20
2022-12-17T11:03:48.170Z,38.83
2022-12-17T11:06:42.735Z,40.80
2022-12-17T11:09:36.826Z,40.03
2022-12-17T11:12:30.267Z,37.40
2022-12-17T11:15:21.438Z,39.13
2022-12-17T11:18:11.543Z,36.87
2022-12-17T11:21:07.938Z,38.57
2022-12-17T11:23:56.516Z,35.60
2022-12-17T11:26:45.260Z,37.53
2022-12-17T11:29:32.108Z,36.13
2022-12-17T11:32:43.117Z,37.83
2022-12-17T11:35:35.831Z,36.07
2022-12-17T11:38:33.990Z,35.03
2022-12-17T11:41:27.767Z,35.07
2022-12-17T11:44:20.372Z,37.17
2022-12-17T11:47:17.074Z,36.37
2022-12-17T11:50:11.254Z,36.00
2022-12-17T11:53:08.173Z,33.13
2022-12-17T11:55:59.993Z,36.40
2022-12-17T11:58:55.375Z,34.23
2022-12-17T12:01:50.651Z,32.70
2022-12-17T12:04:45.862Z,34.03
2022-12-17T12:07:46.010Z,35.90
2022-12-17T12:10:38.647Z,36.60
2022-12-17T12:13:39.071Z,35.70
2022-12-17T12:16:38.063Z,33.83
2022-12-17T12:19:38.448Z,34.50
2022-12-17T12:22:32.510Z,35.20
2022-12-17T12:25:38.891Z,37.80
2022-12-17T12:28:37.021Z,35.37
2022-12-17T12:31:34.523Z,37.23
2022-12-17T12:34:25.396Z,38.30
2022-12-17T12:37:11.618Z,37.20
2022-12-17T12:40:02.814Z,35.00
2022-12-17T12:42:56.118Z,37.20
2022-12-17T12:45:57.051Z,37.80
2022-12-17T12:49:01.273Z,37.03
2022-12-17T12:51:50.085Z,36.97
2022-12-17T12:54:42.809Z,34.60
2022-12-17T12:57:47.518Z,34.90
2022-12-17T13:00:47.302Z,34.00
2022-12-17T13:03:40.877Z,36.60
2022-12-17T13:06:10.715Z,36.00
2022-12-17T13:08:39.727Z,36.30
2022-12-17T13:11:26.863Z,35.70
2022-12-17T13:14:00.768Z,35.07
2022-12-17T13:16:42.657Z,35.87
2022-12-17T13:19:22.635Z,31.97
2022-12-17T13:21:52.724Z,33.43
2022-12-17T13:24:28.845Z,33.57
2022-12-17T13:26:57.132Z,33.07
2022-12-17T13:29:29.915Z,34.27
2022-12-17T13:32:09.677Z,33.47
2022-12-17T13:34:51.426Z,33.67
2022-12-17T13:37:30.364Z,33.40
2022-12-17T13:40:12.862Z,32.83
2022-12-17T13:42:41.039Z,39.23
2022-12-17T13:45:16.899Z,33.20
2022-12-17T13:47:45.133Z,34.70
2022-12-17T13:50:38.872Z,33.23
2022-12-17T13:53:16.580Z,33.83
2022-12-17T13:55:51.553Z,35.73
2022-12-17T13:58:24.337Z,32.70
2022-12-17T14:00:52.661Z,31.93
2022-12-17T14:03:43.025Z,36.57
2022-12-17T14:06:13.261Z,31.67
2022-12-17T14:08:43.518Z,31.70
2022-12-17T14:11:30.902Z,33.77
2022-12-17T14:13:59.837Z,31.17
2022-12-17T14:16:28.279Z,35.47
2022-12-17T14:18:59.118Z,31.73
2022-12-17T14:21:28.242Z,32.23
2022-12-17T14:23:58.512Z,30.47
2022-12-17T14:26:26.649Z,33.67
2022-12-17T14:28:56.386Z,32.83
2022-12-17T14:31:28.853Z,32.43
2022-12-17T14:34:07.467Z,32.17
2022-12-17T14:36:39.082Z,31.37
2022-12-17T14:39:19.835Z,32.10
2022-12-17T14:42:06.050Z,32.63
2022-12-17T14:44:35.234Z,33.23
2022-12-17T14:47:18.526Z,33.23
2022-12-17T14:49:56.031Z,32.47
2022-12-17T14:52:36.727Z,35.30
2022-12-17T14:55:25.917Z,34.60
2022-12-17T14:57:55.824Z,39.07
2022-12-17T15:00:23.735Z,34.40
2022-12-17T15:02:55.803Z,36.23
2022-12-17T15:05:25.441Z,36.43
2022-12-17T15:07:55.566Z,39.10
2022-12-17T15:10:25.499Z,41.83
2022-12-17T15:12:53.594Z,41.37
2022-12-17T15:15:23.608Z,40.63
2022-12-17T15:17:51.635Z,43.07
2022-12-17T15:20:21.841Z,42.00
2022-12-17T15:22:50.102Z,42.93
2022-12-17T15:25:20.031Z,46.00
2022-12-17T15:27:49.642Z,41.30
2022-12-17T15:30:19.112Z,40.30
2022-12-17T15:32:47.350Z,39.80
2022-12-17T15:35:18.852Z,41.97
2022-12-17T15:37:46.961Z,42.43
2022-12-17T15:40:14.949Z,42.57
2022-12-17T15:43:04.709Z,47.10
2022-12-17T15:45:35.970Z,45.43
2022-12-17T15:48:04.011Z,44.23
2022-12-17T15:50:32.280Z,48.90
2022-12-17T15:53:00.370Z,43.87
2022-12-17T15:55:28.527Z,45.33
2022-12-17T15:57:56.941Z,43.17
2022-12-17T16:00:25.523Z,46.17
2022-12-17T16:02:55.046Z,49.47
2022-12-17T16:05:23.931Z,46.90
2022-12-17T16:07:52.787Z,47.40
2022-12-17T16:10:21.063Z,48.87
2022-12-17T16:12:55.340Z,51.60
2022-12-17T16:15:24.022Z,47.37
2022-12-17T16:17:51.962Z,51.23
2022-12-17T16:20:22.957Z,48.13
2022-12-17T16:22:51.128Z,48.50
2022-12-17T16:25:19.486Z,46.77
2022-12-17T16:27:48.877Z,53.10
2022-12-17T16:30:17.288Z,48.47
2022-12-17T16:32:45.265Z,50.70
2022-12-17T16:35:14.094Z,51.13
2022-12-17T16:37:43.610Z,47.93
2022-12-17T16:40:12.838Z,48.33
2022-12-17T16:42:40.858Z,47.87
2022-12-17T16:45:10.253Z,46.47
2022-12-17T16:47:38.450Z,51.23
2022-12-17T16:50:07.312Z,51.07
2022-12-17T16:52:36.097Z,51.33
2022-12-17T16:55:06.484Z,50.33
2022-12-17T16:57:34.853Z,46.23
2022-12-17T17:00:04.413Z,54.20
2022-12-17T17:02:32.753Z,48.27
2022-12-17T17:05:01.331Z,49.10
2022-12-17T17:07:29.737Z,54.23
2022-12-17T17:10:05.750Z,57.87
2022-12-17T17:12:36.827Z,51.90
2022-12-17T17:15:07.654Z,48.97
2022-12-17T17:17:55.084Z,52.70
2022-12-17T17:20:24.171Z,53.53
2022-12-17T17:22:53.131Z,50.87
2022-12-17T17:25:22.634Z,60.33
2022-12-17T17:27:52.279Z,53.17
2022-12-17T17:30:21.276Z,48.60
2022-12-17T17:32:50.109Z,61.13
2022-12-17T17:35:18.343Z,51.10
2022-12-17T17:37:46.340Z,62.97
2022-12-17T17:40:14.939Z,62.43
2022-12-17T17:42:45.055Z,55.87
2022-12-17T17:45:18.331Z,50.33
2022-12-17T17:47:46.665Z,52.47
2022-12-17T17:50:14.985Z,59.50
2022-12-17T17:52:43.365Z,62.47
2022-12-17T17:55:11.840Z,51.80
2022-12-17T17:57:40.244Z,59.03
2022-12-17T18:00:09.450Z,61.60
2022-12-17T18:02:39.314Z,68.40
2022-12-17T18:05:08.332Z,62.60
2022-12-17T18:07:39.497Z,59.43
2022-12-17T18:10:09.303Z,66.23
2022-12-17T18:12:56.119Z,61.00
2022-12-17T18:15:24.447Z,55.53
2022-12-17T18:17:54.534Z,58.13
2022-12-17T18:20:22.548Z,46.97
2022-12-17T18:22:52.059Z,57.20
2022-12-17T18:25:21.109Z,55.00
2022-12-17T18:27:49.159Z,49.97
2022-12-17T18:30:19.053Z,55.17
2022-12-17T18:32:51.831Z,52.67
2022-12-17T18:35:21.314Z,55.43
2022-12-17T18:37:49.381Z,55.17
2022-12-17T18:40:18.496Z,57.23
2022-12-17T18:43:06.200Z,53.67
2022-12-17T18:45:38.458Z,48.53
2022-12-17T18:48:07.610Z,48.37
2022-12-17T18:50:37.762Z,50.90
2022-12-17T18:53:06.764Z,60.13
2022-12-17T18:55:40.944Z,55.93
2022-12-17T18:58:09.757Z,48.07
2022-12-17T19:00:39.286Z,56.37
2022-12-17T19:03:11.166Z,58.70
2022-12-17T19:05:46.534Z,52.30
2022-12-17T19:08:16.114Z,56.73
2022-12-17T19:10:45.888Z,55.10
2022-12-17T19:13:14.040Z,57.70
2022-12-17T19:15:45.568Z,57.10
2022-12-17T19:18:13.804Z,62.13
2022-12-17T19:20:44.958Z,55.87
2022-12-17T19:23:13.479Z,55.73
2022-12-17T19:25:41.915Z,58.10
2022-12-17T19:28:11.843Z,58.53
2022-12-17T19:30:40.064Z,55.03
2022-12-17T19:33:09.826Z,51.57
2022-12-17T19:35:38.139Z,56.07
2022-12-17T19:38:08.241Z,54.67
2022-12-17T19:40:36.427Z,58.77
2022-12-17T19:43:05.188Z,53.00
2022-12-17T19:45:34.970Z,54.27
2022-12-17T19:48:03.490Z,59.93
2022-12-17T19:50:38.964Z,56.77
2022-12-17T19:53:11.673Z,52.10
2022-12-17T19:55:44.742Z,58.73
2022-12-17T19:58:12.756Z,52.63
2022-12-17T20:00:41.289Z,49.67
2022-12-17T20:03:09.532Z,50.70
2022-12-17T20:05:37.722Z,51.43
2022-12-17T20:08:06.502Z,49.20
2022-12-17T20:10:36.109Z,53.73
2022-12-17T20:13:04.597Z,47.80
2022-12-17T20:15:32.578Z,50.47
2022-12-17T20:18:00.584Z,49.50
2022-12-17T20:20:28.654Z,49.33
2022-12-17T20:22:56.712Z,49.87
2022-12-17T20:25:24.636Z,53.53
2022-12-17T20:27:54.184Z,46.57
2022-12-17T20:30:25.111Z,54.83
2022-12-17T20:32:54.163Z,52.10
2022-12-17T20:35:22.558Z,52.83
2022-12-17T20:37:50.843Z,48.93
2022-12-17T20:40:19.032Z,47.43
2022-12-17T20:42:46.966Z,58.77
2022-12-17T20:45:16.444Z,51.37
2022-12-17T20:47:44.588Z,47.53
2022-12-17T20:50:12.668Z,59.10
2022-12-17T20:52:40.654Z,48.70
2022-12-17T20:55:09.298Z,46.83
2022-12-17T20:57:37.355Z,47.03
2022-12-17T21:00:06.264Z,46.60
2022-12-17T21:02:36.373Z,50.73
2022-12-17T21:05:04.977Z,48.67
2022-12-17T21:07:32.925Z,50.77
2022-12-17T21:10:00.887Z,44.80
2022-12-17T21:12:49.327Z,47.63
2022-12-17T21:15:17.487Z,54.07
2022-12-17T21:17:47.067Z,45.33
2022-12-17T21:20:15.657Z,45.50
2022-12-17T21:22:44.912Z,51.57
2022-12-17T21:25:13.019Z,48.93
2022-12-17T21:27:44.468Z,46.77
2022-12-17T21:30:15.814Z,44.37
2022-12-17T21:32:43.672Z,45.03
2022-12-17T21:35:15.853Z,42.83
2022-12-17T21:37:44.911Z,43.07
2022-12-17T21:40:14.272Z,50.40
2022-12-17T21:42:59.754Z,48.97
2022-12-17T21:45:27.662Z,47.80
2022-12-17T21:47:56.654Z,44.23
2022-12-17T21:50:26.329Z,44.50
2022-12-17T21:52:54.455Z,47.63
2022-12-17T21:55:22.610Z,45.50
2022-12-17T21:57:50.656Z,50.33
2022-12-17T22:00:19.164Z,45.37
2022-12-17T22:02:48.345Z,45.70
2022-12-17T22:05:18.099Z,46.87
2022-12-17T22:07:49.642Z,48.17
2022-12-17T22:10:24.060Z,46.60
2022-12-17T22:13:25.254Z,49.73
2022-12-17T22:15:55.847Z,43.30
2022-12-17T22:18:23.886Z,45.83
2022-12-17T22:20:59.328Z,52.53
2022-12-17T22:23:29.145Z,49.57
2022-12-17T22:25:57.630Z,44.67
2022-12-17T22:28:25.656Z,46.97
2022-12-17T22:31:11.336Z,44.27
2022-12-17T22:34:50.675Z,50.33
2022-12-17T22:38:38.541Z,46.20
2022-12-17T22:44:39.040Z,47.40
2022-12-17T22:44:45.327Z,45.43
2022-12-17T22:45:14.203Z,43.37
2022-12-17T22:47:42.717Z,47.10
2022-12-17T22:50:11.715Z,43.03
2022-12-17T22:52:40.390Z,42.97
2022-12-17T22:55:13.340Z,45.03
2022-12-17T22:57:42.177Z,43.40
2022-12-17T23:00:19.205Z,45.37
2022-12-17T23:02:47.566Z,44.60
2022-12-17T23:05:15.779Z,46.20
2022-12-17T23:07:43.726Z,48.37
2022-12-17T23:10:13.506Z,45.43
2022-12-17T23:12:54.189Z,47.80
2022-12-17T23:15:26.093Z,46.97
2022-12-17T23:17:57.112Z,46.30
2022-12-17T23:20:26.341Z,46.73
2022-12-17T23:22:54.551Z,46.90
2022-12-17T23:25:24.460Z,49.53
2022-12-17T23:27:52.643Z,48.07
2022-12-17T23:30:21.832Z,49.23
2022-12-17T23:32:49.988Z,50.33
2022-12-17T23:35:18.133Z,48.67
2022-12-17T23:37:46.351Z,48.57
2022-12-17T23:40:14.890Z,54.73
2022-12-17T23:42:46.624Z,45.70
2022-12-17T23:45:14.840Z,51.53
2022-12-17T23:47:43.157Z,54.53
2022-12-17T23:50:12.109Z,50.93
2022-12-17T23:52:40.431Z,51.33
2022-12-17T23:55:09.187Z,49.00
2022-12-17T23:57:37.253Z,47.87
